createdAt,value
2023-05-05T00:02:22.263Z,101265.56
2023-05-05T00:07:24.367Z,101263.81
2023-05-05T00:12:26.198Z,101266.44
2023-05-05T00:17:28.153Z,101259.31
2023-05-05T00:22:30.070Z,101261.91
2023-05-05T00:27:32.110Z,101259.22
2023-05-05T00:32:33.856Z,101255.63
2023-05-05T00:37:36.284Z,101244.09
2023-05-05T00:42:42.743Z,101242.28
2023-05-05T00:48:05.953Z,101240.50
2023-05-05T00:53:08.033Z,101237.81
2023-05-05T00:58:10.345Z,101237.78
2023-05-05T01:03:15.673Z,101240.41
2023-05-05T01:08:38.509Z,101235.97
2023-05-05T01:14:17.506Z,101228.84
2023-05-05T01:19:34.301Z,101240.31
2023-05-05T01:25:01.682Z,101244.72
2023-05-05T01:30:15.568Z,101248.22
2023-05-05T01:35:27.638Z,101248.19
2023-05-05T01:40:33.879Z,101246.38
2023-05-05T01:45:39.184Z,101240.13
2023-05-05T01:50:43.094Z,101236.56
2023-05-05T01:55:47.132Z,101236.53
2023-05-05T02:06:07.817Z,101236.47
2023-05-05T02:11:11.468Z,101230.22
2023-05-05T02:16:14.340Z,101224.00
2023-05-05T02:21:18.363Z,101223.09
2023-05-05T02:26:24.023Z,101226.56
2023-05-05T02:31:27.583Z,101217.69
2023-05-05T02:36:33.966Z,101218.53
2023-05-05T02:41:39.757Z,101215.84
2023-05-05T02:46:43.389Z,101221.09
2023-05-05T02:51:45.444Z,101212.19
2023-05-05T02:56:51.793Z,101213.91
2023-05-05T03:02:32.951Z,101218.31
2023-05-05T03:07:41.304Z,101220.91
2023-05-05T03:12:57.062Z,101224.38
2023-05-05T03:18:00.724Z,101222.56
2023-05-05T03:23:03.293Z,101211.91
2023-05-05T03:28:05.288Z,101212.78
2023-05-05T03:33:08.620Z,101224.22
2023-05-05T03:38:10.836Z,101229.50
2023-05-05T03:43:12.739Z,101221.50
2023-05-05T03:48:14.776Z,101225.94
2023-05-05T03:53:16.777Z,101249.81
2023-05-05T03:58:19.173Z,101254.25
2023-05-05T04:03:21.341Z,101257.81
2023-05-05T04:08:23.550Z,101246.38
2023-05-05T04:13:25.496Z,101254.34
2023-05-05T04:18:27.508Z,101265.81
2023-05-05T04:23:29.562Z,101264.97
2023-05-05T04:28:31.411Z,101273.88
2023-05-05T04:33:33.494Z,101271.28
2023-05-05T04:38:35.424Z,101283.72
2023-05-05T04:43:37.543Z,101274.94
2023-05-05T04:48:39.390Z,101277.69
2023-05-05T04:53:41.362Z,101286.63
2023-05-05T04:58:43.447Z,101284.16
2023-05-05T05:03:46.203Z,101286.91
2023-05-05T05:08:48.306Z,101288.81
2023-05-05T05:13:50.515Z,101286.31
2023-05-05T05:18:52.642Z,101298.84
2023-05-05T05:23:54.704Z,101294.50
2023-05-05T05:28:56.686Z,101299.06
2023-05-05T05:33:58.663Z,101297.41
2023-05-05T05:39:00.652Z,101307.25
2023-05-05T05:44:02.692Z,101307.28
2023-05-05T05:49:04.711Z,101303.81
2023-05-05T05:54:06.828Z,101306.53
2023-05-05T05:59:10.436Z,101310.13
2023-05-05T06:04:13.790Z,101316.34
2023-05-05T06:09:16.027Z,101308.28
2023-05-05T06:14:19.499Z,101319.69
2023-05-05T06:19:22.110Z,101306.16
2023-05-05T06:24:24.318Z,101315.72
2023-05-05T06:29:28.928Z,101316.34
2023-05-05T06:34:31.080Z,101324.72
2023-05-05T06:39:33.091Z,101316.38
2023-05-05T06:44:36.733Z,101317.63
2023-05-05T06:49:38.754Z,101334.97
2023-05-05T06:54:40.963Z,101333.47
2023-05-05T06:59:43.030Z,101328.16
2023-05-05T07:04:45.168Z,101329.91
2023-05-05T07:09:47.357Z,101320.25
2023-05-05T07:14:49.503Z,101332.06
2023-05-05T07:19:52.020Z,101319.97
2023-05-05T07:24:54.089Z,101318.84
2023-05-05T07:29:56.141Z,101325.88
2023-05-05T07:34:58.230Z,101330.16
2023-05-05T07:40:00.189Z,101330.72
2023-05-05T07:45:02.548Z,101334.03
2023-05-05T07:50:05.121Z,101337.47
2023-05-05T07:55:07.322Z,101336.75
2023-05-05T08:00:10.635Z,101336.94
2023-05-05T08:05:13.009Z,101336.31
2023-05-05T08:10:15.132Z,101337.72
2023-05-05T08:15:17.235Z,101339.47
2023-05-05T08:20:21.115Z,101338.97
2023-05-05T08:25:23.264Z,101349.28
2023-05-05T08:30:25.419Z,101343.78
2023-05-05T08:35:27.547Z,101345.84
2023-05-05T08:40:34.553Z,101351.22
2023-05-05T08:45:37.677Z,101345.06
2023-05-05T08:50:40.669Z,101343.72
2023-05-05T08:55:52.621Z,101333.19
2023-05-05T09:00:56.064Z,101343.78
2023-05-05T09:05:58.764Z,101356.78
2023-05-05T09:11:02.210Z,101357.94
2023-05-05T09:16:04.523Z,101359.69
2023-05-05T09:21:27.013Z,101361.91
2023-05-05T09:26:33.597Z,101365.16
2023-05-05T09:31:38.114Z,101364.09
2023-05-05T09:36:49.998Z,101367.06
2023-05-05T09:41:53.154Z,101377.03
2023-05-05T09:46:56.048Z,101370.88
2023-05-05T09:51:58.268Z,101371.50
2023-05-05T09:57:00.280Z,101373.31
2023-05-05T10:02:15.989Z,101380.28
2023-05-05T10:07:27.810Z,101384.25
2023-05-05T10:12:31.646Z,101386.97
2023-05-05T10:17:58.335Z,101385.25
2023-05-05T10:23:08.555Z,101381.47
2023-05-05T10:28:16.384Z,101384.25
2023-05-05T10:33:34.479Z,101388.66
2023-05-05T10:38:37.586Z,101388.09
2023-05-05T10:43:40.669Z,101385.53
2023-05-05T10:49:15.305Z,101376.56
2023-05-05T10:54:37.152Z,101387.16
2023-05-05T10:59:41.786Z,101382.69
2023-05-05T11:04:44.095Z,101386.34
2023-05-05T11:09:57.434Z,101374.13
2023-05-05T11:15:21.362Z,101374.00
2023-05-05T11:20:49.931Z,101367.69
2023-05-05T11:25:53.202Z,101368.84
2023-05-05T11:30:55.371Z,101380.38
2023-05-05T11:35:59.021Z,101372.78
2023-05-05T11:41:12.732Z,101373.47
2023-05-05T11:46:17.367Z,101372.81
2023-05-05T11:51:19.974Z,101381.88
2023-05-05T11:56:24.750Z,101371.28
2023-05-05T12:01:27.132Z,101373.28
2023-05-05T12:06:33.347Z,101373.16
2023-05-05T12:11:35.428Z,101366.03
2023-05-05T12:16:38.790Z,101372.44
2023-05-05T12:21:40.955Z,101357.72
2023-05-05T12:26:43.397Z,101374.75
2023-05-05T12:31:45.562Z,101372.53
2023-05-05T12:36:47.974Z,101364.78
2023-05-05T12:41:51.031Z,101370.78
2023-05-05T12:46:59.487Z,101367.13
2023-05-05T12:52:05.982Z,101370.09
2023-05-05T12:57:12.254Z,101380.28
2023-05-05T13:02:15.800Z,101369.00
2023-05-05T13:07:20.036Z,101365.25
2023-05-05T13:12:23.314Z,101354.53
2023-05-05T13:17:27.341Z,101346.31
2023-05-05T13:22:29.594Z,101355.03
2023-05-05T13:27:31.949Z,101352.66
2023-05-05T13:32:34.269Z,101351.16
2023-05-05T13:37:36.461Z,101335.28
2023-05-05T13:42:38.781Z,101332.25
2023-05-05T13:47:42.276Z,101324.22
2023-05-05T13:52:46.514Z,101323.66
2023-05-05T13:57:49.233Z,101338.34
2023-05-05T14:02:52.849Z,101328.41
2023-05-05T14:07:56.542Z,101326.41
2023-05-05T14:12:59.062Z,101322.25
2023-05-05T14:18:02.182Z,101317.69
2023-05-05T14:23:04.752Z,101324.25
2023-05-05T14:28:07.695Z,101328.59
2023-05-05T14:33:12.745Z,101325.19
2023-05-05T14:38:14.974Z,101329.19
2023-05-05T14:43:19.631Z,101325.44
2023-05-05T14:48:23.244Z,101335.75
2023-05-05T14:53:25.368Z,101340.47
2023-05-05T14:58:27.697Z,101330.81
2023-05-05T15:03:34.522Z,101340.81
2023-05-05T15:08:39.446Z,101340.47
2023-05-05T15:14:06.095Z,101327.50
2023-05-05T15:19:10.412Z,101340.19
2023-05-05T15:24:12.849Z,101332.38
2023-05-05T15:29:15.101Z,101343.00
2023-05-05T15:34:17.376Z,101332.97
2023-05-05T15:39:19.986Z,101336.03
2023-05-05T15:44:22.396Z,101329.19
2023-05-05T15:49:24.739Z,101325.13
2023-05-05T15:54:27.675Z,101330.19
2023-05-05T15:59:30.246Z,101330.44
2023-05-05T16:04:32.798Z,101320.00
2023-05-05T16:09:38.834Z,101323.69
2023-05-05T16:14:41.278Z,101327.56
2023-05-05T16:19:43.907Z,101325.91
2023-05-05T16:24:46.247Z,101337.69
2023-05-05T16:29:48.522Z,101329.84
2023-05-05T16:34:51.003Z,101330.00
2023-05-05T16:39:53.781Z,101319.53
2023-05-05T16:44:56.915Z,101318.84
2023-05-05T16:49:59.202Z,101313.63
2023-05-05T16:55:01.436Z,101317.28
2023-05-05T17:00:05.289Z,101305.78
2023-05-05T17:05:08.072Z,101310.44
2023-05-05T17:10:11.496Z,101321.19
2023-05-05T17:15:14.092Z,101326.63
2023-05-05T17:20:16.784Z,101320.59
2023-05-05T17:25:19.381Z,101336.84
2023-05-05T17:30:21.802Z,101343.25
2023-05-05T17:35:24.084Z,101336.22
2023-05-05T17:45:44.308Z,101339.91
2023-05-05T17:50:50.439Z,101345.41
2023-05-05T17:55:52.857Z,101342.78
2023-05-05T18:00:55.205Z,101352.59
2023-05-05T18:05:57.934Z,101358.00
2023-05-05T18:11:00.110Z,101352.66
2023-05-05T18:16:02.306Z,101343.81
2023-05-05T18:21:04.583Z,101350.06
2023-05-05T18:26:07.624Z,101357.19
2023-05-05T18:31:09.941Z,101360.78
2023-05-05T18:36:12.412Z,101361.69
2023-05-05T18:41:15.829Z,101365.22
2023-05-05T18:46:19.807Z,101367.91
2023-05-05T18:51:23.207Z,101375.91
2023-05-05T18:56:28.969Z,101376.75
2023-05-05T19:01:33.495Z,101380.31
2023-05-05T19:06:39.842Z,101377.63
2023-05-05T19:11:44.442Z,101379.41
2023-05-05T19:27:58.235Z,101376.72
2023-05-05T19:40:24.824Z,101372.28
2023-05-05T19:57:15.879Z,101376.69
2023-05-05T20:02:17.990Z,101377.56
2023-05-05T20:07:20.469Z,101370.44
2023-05-05T20:12:23.890Z,101373.09
2023-05-05T20:17:26.683Z,101375.72
2023-05-05T20:22:29.597Z,101378.31
2023-05-05T20:27:34.093Z,101376.50
2023-05-05T20:32:39.002Z,101372.06
2023-05-05T20:37:42.366Z,101373.75
2023-05-05T20:42:44.874Z,101372.84
2023-05-05T20:47:47.474Z,101369.28
2023-05-05T20:52:50.267Z,101368.38
2023-05-05T20:57:52.369Z,101374.44
2023-05-05T21:02:54.707Z,101365.53
2023-05-05T21:07:58.539Z,101361.03
2023-05-05T21:13:03.191Z,101363.59
2023-05-05T21:18:05.985Z,101367.09
2023-05-05T21:23:08.077Z,101362.59
2023-05-05T21:28:10.319Z,101371.47
2023-05-05T21:33:12.634Z,101363.44
2023-05-05T21:38:15.124Z,101355.41
2023-05-05T21:43:17.448Z,101355.38
2023-05-05T21:48:20.602Z,101346.53
2023-05-05T21:53:23.086Z,101344.69
2023-05-05T21:58:25.518Z,101354.34
2023-05-05T22:03:27.609Z,101347.25
2023-05-05T22:08:29.807Z,101350.72
2023-05-05T22:13:31.746Z,101355.13
2023-05-05T22:18:34.674Z,101349.78
2023-05-05T22:23:37.599Z,101346.19
2023-05-05T22:28:39.642Z,101352.28
2023-05-05T22:33:41.510Z,101344.31
2023-05-05T22:38:43.496Z,101331.94
2023-05-05T22:43:45.629Z,101334.50
2023-05-05T22:48:47.653Z,101326.44
2023-05-05T22:53:49.549Z,101324.69
2023-05-05T22:58:51.580Z,101320.28
2023-05-05T23:03:53.489Z,101332.72
2023-05-05T23:08:55.580Z,101324.72
2023-05-05T23:13:57.426Z,101328.25
2023-05-05T23:18:59.395Z,101314.97
2023-05-05T23:24:01.355Z,101323.78
2023-05-05T23:29:03.275Z,101315.81
2023-05-05T23:34:05.212Z,101309.59
2023-05-05T23:39:07.765Z,101303.41
2023-05-05T23:44:09.727Z,101298.09
2023-05-05T23:49:11.698Z,101304.25
2023-05-05T23:54:13.646Z,101291.00
2023-05-05T23:59:15.669Z,101297.16
